sensor_id;sensor_type;location;lat;lon;timestamp;P1;durP1;ratioP1;P2;durP2;ratioP2
12818;SDS011;6474;53.474;9.894;2023-05-07T00:02:33;3.00;;;2.80;;
12818;SDS011;6474;53.474;9.894;2023-05-07T00:05:03;4.87;;;3.07;;
12818;SDS011;6474;53.474;9.894;2023-05-07T00:07:31;3.30;;;3.00;;
12818;SDS011;6474;53.474;9.894;2023-05-07T00:10:02;3.30;;;3.00;;
12818;SDS011;6474;53.474;9.894;2023-05-07T00:12:30;3.20;;;2.97;;
12818;SDS011;6474;53.474;9.894;2023-05-07T00:15:00;3.47;;;3.13;;
12818;SDS011;6474;53.474;9.894;2023-05-07T00:17:29;2.93;;;2.73;;
12818;SDS011;6474;53.474;9.894;2023-05-07T00:19:57;3.13;;;2.93;;
12818;SDS011;6474;53.474;9.894;2023-05-07T00:22:26;2.57;;;2.47;;
12818;SDS011;6474;53.474;9.894;2023-05-07T00:24:56;3.50;;;3.20;;
12818;SDS011;6474;53.474;9.894;2023-05-07T00:27:24;2.33;;;2.23;;
12818;SDS011;6474;53.474;9.894;2023-05-07T00:29:52;2.93;;;2.57;;
12818;SDS011;6474;53.474;9.894;2023-05-07T00:32:20;2.73;;;2.63;;
12818;SDS011;6474;53.474;9.894;2023-05-07T00:34:47;3.37;;;3.17;;
12818;SDS011;6474;53.474;9.894;2023-05-07T00:37:17;2.67;;;2.57;;
12818;SDS011;6474;53.474;9.894;2023-05-07T00:39:46;2.50;;;2.30;;
12818;SDS011;6474;53.474;9.894;2023-05-07T00:42:13;2.20;;;2.10;;
12818;SDS011;6474;53.474;9.894;2023-05-07T00:44:42;2.77;;;2.60;;
12818;SDS011;6474;53.474;9.894;2023-05-07T00:47:10;2.57;;;2.37;;
12818;SDS011;6474;53.474;9.894;2023-05-07T00:49:39;2.87;;;2.60;;
12818;SDS011;6474;53.474;9.894;2023-05-07T00:52:08;2.80;;;2.60;;
12818;SDS011;6474;53.474;9.894;2023-05-07T00:54:38;2.43;;;2.33;;
12818;SDS011;6474;53.474;9.894;2023-05-07T00:57:10;2.47;;;2.33;;
12818;SDS011;6474;53.474;9.894;2023-05-07T00:59:38;2.57;;;2.47;;
12818;SDS011;6474;53.474;9.894;2023-05-07T01:02:07;2.57;;;2.37;;
12818;SDS011;6474;53.474;9.894;2023-05-07T01:04:35;2.30;;;2.20;;
12818;SDS011;6474;53.474;9.894;2023-05-07T01:07:03;2.33;;;2.23;;
12818;SDS011;6474;53.474;9.894;2023-05-07T01:09:33;2.20;;;2.10;;
12818;SDS011;6474;53.474;9.894;2023-05-07T01:12:02;2.40;;;2.30;;
12818;SDS011;6474;53.474;9.894;2023-05-07T01:14:32;2.27;;;2.17;;
12818;SDS011;6474;53.474;9.894;2023-05-07T01:17:01;2.20;;;2.00;;
12818;SDS011;6474;53.474;9.894;2023-05-07T01:19:29;2.37;;;2.27;;
12818;SDS011;6474;53.474;9.894;2023-05-07T01:21:59;2.97;;;2.70;;
12818;SDS011;6474;53.474;9.894;2023-05-07T01:24:32;2.30;;;2.13;;
12818;SDS011;6474;53.474;9.894;2023-05-07T01:27:02;2.80;;;2.60;;
12818;SDS011;6474;53.474;9.894;2023-05-07T01:29:30;2.43;;;2.30;;
12818;SDS011;6474;53.474;9.894;2023-05-07T01:31:58;2.57;;;2.40;;
12818;SDS011;6474;53.474;9.894;2023-05-07T01:34:28;2.30;;;2.20;;
12818;SDS011;6474;53.474;9.894;2023-05-07T01:36:59;2.10;;;2.00;;
12818;SDS011;6474;53.474;9.894;2023-05-07T01:39:29;2.20;;;2.00;;
12818;SDS011;6474;53.474;9.894;2023-05-07T01:41:59;2.23;;;2.03;;
12818;SDS011;6474;53.474;9.894;2023-05-07T01:44:27;2.00;;;1.90;;
12818;SDS011;6474;53.474;9.894;2023-05-07T01:46:55;2.77;;;2.47;;
12818;SDS011;6474;53.474;9.894;2023-05-07T01:49:24;2.30;;;2.20;;
12818;SDS011;6474;53.474;9.894;2023-05-07T01:51:53;2.27;;;2.00;;
12818;SDS011;6474;53.474;9.894;2023-05-07T01:54:24;2.57;;;2.37;;
12818;SDS011;6474;53.474;9.894;2023-05-07T01:56:53;1.77;;;1.77;;
12818;SDS011;6474;53.474;9.894;2023-05-07T01:59:23;2.30;;;2.20;;
12818;SDS011;6474;53.474;9.894;2023-05-07T02:01:51;2.57;;;2.27;;
12818;SDS011;6474;53.474;9.894;2023-05-07T02:04:19;2.53;;;1.93;;
12818;SDS011;6474;53.474;9.894;2023-05-07T02:06:47;1.93;;;1.80;;
12818;SDS011;6474;53.474;9.894;2023-05-07T02:09:15;3.87;;;2.60;;
12818;SDS011;6474;53.474;9.894;2023-05-07T02:11:44;2.60;;;2.40;;
12818;SDS011;6474;53.474;9.894;2023-05-07T02:14:11;2.13;;;2.03;;
12818;SDS011;6474;53.474;9.894;2023-05-07T02:16:40;2.00;;;1.87;;
12818;SDS011;6474;53.474;9.894;2023-05-07T02:19:08;2.50;;;2.30;;
12818;SDS011;6474;53.474;9.894;2023-05-07T02:21:36;2.57;;;2.40;;
12818;SDS011;6474;53.474;9.894;2023-05-07T02:24:04;2.10;;;2.00;;
12818;SDS011;6474;53.474;9.894;2023-05-07T02:26:32;1.77;;;1.70;;
12818;SDS011;6474;53.474;9.894;2023-05-07T02:29:00;1.90;;;1.80;;
12818;SDS011;6474;53.474;9.894;2023-05-07T02:31:28;2.50;;;2.40;;
12818;SDS011;6474;53.474;9.894;2023-05-07T02:33:58;1.90;;;1.80;;
12818;SDS011;6474;53.474;9.894;2023-05-07T02:36:25;1.93;;;1.90;;
12818;SDS011;6474;53.474;9.894;2023-05-07T02:38:53;2.77;;;2.57;;
12818;SDS011;6474;53.474;9.894;2023-05-07T02:41:22;2.27;;;2.27;;
12818;SDS011;6474;53.474;9.894;2023-05-07T02:43:49;2.40;;;2.30;;
12818;SDS011;6474;53.474;9.894;2023-05-07T02:46:17;2.43;;;2.33;;
12818;SDS011;6474;53.474;9.894;2023-05-07T02:48:45;2.47;;;2.37;;
12818;SDS011;6474;53.474;9.894;2023-05-07T02:51:14;2.90;;;2.70;;
12818;SDS011;6474;53.474;9.894;2023-05-07T02:53:42;1.97;;;1.80;;
12818;SDS011;6474;53.474;9.894;2023-05-07T02:56:09;2.50;;;2.30;;
12818;SDS011;6474;53.474;9.894;2023-05-07T02:58:38;3.13;;;2.83;;
12818;SDS011;6474;53.474;9.894;2023-05-07T03:01:06;2.37;;;2.27;;
12818;SDS011;6474;53.474;9.894;2023-05-07T03:03:34;2.17;;;2.07;;
12818;SDS011;6474;53.474;9.894;2023-05-07T03:06:02;2.90;;;2.67;;
12818;SDS011;6474;53.474;9.894;2023-05-07T03:08:32;2.10;;;2.00;;
12818;SDS011;6474;53.474;9.894;2023-05-07T03:10:59;3.07;;;2.87;;
12818;SDS011;6474;53.474;9.894;2023-05-07T03:13:27;2.33;;;2.13;;
12818;SDS011;6474;53.474;9.894;2023-05-07T03:15:55;3.10;;;2.87;;
12818;SDS011;6474;53.474;9.894;2023-05-07T03:18:23;2.93;;;2.40;;
12818;SDS011;6474;53.474;9.894;2023-05-07T03:20:51;2.50;;;2.30;;
12818;SDS011;6474;53.474;9.894;2023-05-07T03:23:19;2.30;;;2.20;;
12818;SDS011;6474;53.474;9.894;2023-05-07T03:25:51;2.30;;;2.10;;
12818;SDS011;6474;53.474;9.894;2023-05-07T03:28:19;2.40;;;2.30;;
12818;SDS011;6474;53.474;9.894;2023-05-07T03:30:47;2.70;;;2.50;;
12818;SDS011;6474;53.474;9.894;2023-05-07T03:33:14;2.47;;;2.30;;
12818;SDS011;6474;53.474;9.894;2023-05-07T03:35:42;3.00;;;2.80;;
12818;SDS011;6474;53.474;9.894;2023-05-07T03:38:10;2.73;;;2.50;;
12818;SDS011;6474;53.474;9.894;2023-05-07T03:40:38;2.83;;;2.60;;
12818;SDS011;6474;53.474;9.894;2023-05-07T03:43:07;2.90;;;2.80;;
12818;SDS011;6474;53.474;9.894;2023-05-07T03:45:35;4.63;;;2.93;;
12818;SDS011;6474;53.474;9.894;2023-05-07T03:48:03;2.90;;;2.70;;
12818;SDS011;6474;53.474;9.894;2023-05-07T03:50:31;2.47;;;2.37;;
12818;SDS011;6474;53.474;9.894;2023-05-07T03:52:59;2.50;;;2.37;;
12818;SDS011;6474;53.474;9.894;2023-05-07T03:55:27;2.40;;;2.20;;
12818;SDS011;6474;53.474;9.894;2023-05-07T03:57:54;2.70;;;2.57;;
12818;SDS011;6474;53.474;9.894;2023-05-07T04:00:24;2.30;;;2.10;;
12818;SDS011;6474;53.474;9.894;2023-05-07T04:02:51;2.40;;;2.30;;
12818;SDS011;6474;53.474;9.894;2023-05-07T04:05:19;3.10;;;2.90;;
12818;SDS011;6474;53.474;9.894;2023-05-07T04:07:47;4.10;;;3.00;;
12818;SDS011;6474;53.474;9.894;2023-05-07T04:10:15;2.60;;;2.43;;
12818;SDS011;6474;53.474;9.894;2023-05-07T04:12:42;3.10;;;2.83;;
12818;SDS011;6474;53.474;9.894;2023-05-07T04:15:10;2.67;;;2.33;;
12818;SDS011;6474;53.474;9.894;2023-05-07T04:17:39;4.27;;;3.40;;
12818;SDS011;6474;53.474;9.894;2023-05-07T04:20:08;2.93;;;2.73;;
12818;SDS011;6474;53.474;9.894;2023-05-07T04:22:37;2.93;;;2.73;;
12818;SDS011;6474;53.474;9.894;2023-05-07T04:25:06;3.50;;;2.93;;
12818;SDS011;6474;53.474;9.894;2023-05-07T04:27:35;2.27;;;2.17;;
12818;SDS011;6474;53.474;9.894;2023-05-07T04:30:04;3.47;;;3.17;;
12818;SDS011;6474;53.474;9.894;2023-05-07T04:32:32;2.30;;;2.20;;
12818;SDS011;6474;53.474;9.894;2023-05-07T04:35:01;2.93;;;2.73;;
12818;SDS011;6474;53.474;9.894;2023-05-07T04:37:31;7.03;;;2.33;;
12818;SDS011;6474;53.474;9.894;2023-05-07T04:39:59;2.80;;;2.60;;
12818;SDS011;6474;53.474;9.894;2023-05-07T04:42:28;3.13;;;2.93;;
12818;SDS011;6474;53.474;9.894;2023-05-07T04:44:57;2.80;;;2.60;;
12818;SDS011;6474;53.474;9.894;2023-05-07T04:47:25;3.40;;;2.83;;
12818;SDS011;6474;53.474;9.894;2023-05-07T04:49:52;2.73;;;2.37;;
12818;SDS011;6474;53.474;9.894;2023-05-07T04:52:21;2.83;;;2.47;;
12818;SDS011;6474;53.474;9.894;2023-05-07T04:54:52;2.83;;;2.57;;
12818;SDS011;6474;53.474;9.894;2023-05-07T04:57:20;2.77;;;2.57;;
12818;SDS011;6474;53.474;9.894;2023-05-07T04:59:47;3.40;;;2.80;;
12818;SDS011;6474;53.474;9.894;2023-05-07T05:02:15;2.23;;;2.13;;
12818;SDS011;6474;53.474;9.894;2023-05-07T05:04:46;3.80;;;3.50;;
12818;SDS011;6474;53.474;9.894;2023-05-07T05:07:13;3.07;;;2.53;;
12818;SDS011;6474;53.474;9.894;2023-05-07T05:09:42;3.50;;;3.20;;
12818;SDS011;6474;53.474;9.894;2023-05-07T05:12:11;2.23;;;2.13;;
12818;SDS011;6474;53.474;9.894;2023-05-07T05:14:38;2.67;;;2.53;;
12818;SDS011;6474;53.474;9.894;2023-05-07T05:17:06;2.57;;;2.37;;
12818;SDS011;6474;53.474;9.894;2023-05-07T05:19:34;2.80;;;2.50;;
12818;SDS011;6474;53.474;9.894;2023-05-07T05:22:02;3.37;;;2.90;;
12818;SDS011;6474;53.474;9.894;2023-05-07T05:24:30;3.17;;;2.97;;
12818;SDS011;6474;53.474;9.894;2023-05-07T05:26:59;3.27;;;2.70;;
12818;SDS011;6474;53.474;9.894;2023-05-07T05:29:28;3.07;;;2.93;;
12818;SDS011;6474;53.474;9.894;2023-05-07T05:31:56;3.17;;;2.77;;
12818;SDS011;6474;53.474;9.894;2023-05-07T05:34:24;5.03;;;2.40;;
12818;SDS011;6474;53.474;9.894;2023-05-07T05:36:52;3.33;;;3.03;;
12818;SDS011;6474;53.474;9.894;2023-05-07T05:39:20;5.33;;;3.17;;
12818;SDS011;6474;53.474;9.894;2023-05-07T05:41:49;2.93;;;2.73;;
12818;SDS011;6474;53.474;9.894;2023-05-07T05:44:20;3.27;;;3.03;;
12818;SDS011;6474;53.474;9.894;2023-05-07T05:46:48;3.20;;;3.00;;
12818;SDS011;6474;53.474;9.894;2023-05-07T05:49:16;2.50;;;2.40;;
12818;SDS011;6474;53.474;9.894;2023-05-07T05:51:44;3.37;;;3.13;;
12818;SDS011;6474;53.474;9.894;2023-05-07T05:54:12;3.17;;;2.97;;
12818;SDS011;6474;53.474;9.894;2023-05-07T05:56:40;4.10;;;3.10;;
12818;SDS011;6474;53.474;9.894;2023-05-07T05:59:08;2.53;;;2.43;;
12818;SDS011;6474;53.474;9.894;2023-05-07T06:01:37;2.83;;;2.73;;
12818;SDS011;6474;53.474;9.894;2023-05-07T06:04:06;3.17;;;2.97;;
12818;SDS011;6474;53.474;9.894;2023-05-07T06:06:33;3.80;;;2.63;;
12818;SDS011;6474;53.474;9.894;2023-05-07T06:09:01;3.90;;;2.63;;
12818;SDS011;6474;53.474;9.894;2023-05-07T06:11:30;3.50;;;2.73;;
12818;SDS011;6474;53.474;9.894;2023-05-07T06:13:58;4.60;;;3.30;;
12818;SDS011;6474;53.474;9.894;2023-05-07T06:16:26;4.53;;;2.93;;
12818;SDS011;6474;53.474;9.894;2023-05-07T06:18:55;3.17;;;2.97;;
12818;SDS011;6474;53.474;9.894;2023-05-07T06:21:23;3.57;;;3.00;;
12818;SDS011;6474;53.474;9.894;2023-05-07T06:23:51;2.83;;;2.63;;
12818;SDS011;6474;53.474;9.894;2023-05-07T06:26:20;3.03;;;2.83;;
12818;SDS011;6474;53.474;9.894;2023-05-07T06:28:48;2.83;;;2.63;;
12818;SDS011;6474;53.474;9.894;2023-05-07T06:31:16;2.80;;;2.60;;
12818;SDS011;6474;53.474;9.894;2023-05-07T06:33:47;2.27;;;2.17;;
12818;SDS011;6474;53.474;9.894;2023-05-07T06:36:17;3.47;;;2.13;;
12818;SDS011;6474;53.474;9.894;2023-05-07T06:38:44;2.63;;;2.50;;
12818;SDS011;6474;53.474;9.894;2023-05-07T06:41:12;2.40;;;2.30;;
12818;SDS011;6474;53.474;9.894;2023-05-07T06:43:40;3.00;;;2.77;;
12818;SDS011;6474;53.474;9.894;2023-05-07T06:46:08;3.00;;;2.47;;
12818;SDS011;6474;53.474;9.894;2023-05-07T06:48:36;3.07;;;2.63;;
12818;SDS011;6474;53.474;9.894;2023-05-07T06:51:04;2.70;;;2.50;;
12818;SDS011;6474;53.474;9.894;2023-05-07T06:53:33;2.37;;;2.27;;
12818;SDS011;6474;53.474;9.894;2023-05-07T06:56:02;2.60;;;2.50;;
12818;SDS011;6474;53.474;9.894;2023-05-07T06:58:30;2.77;;;2.57;;
12818;SDS011;6474;53.474;9.894;2023-05-07T07:00:57;2.67;;;2.50;;
12818;SDS011;6474;53.474;9.894;2023-05-07T07:03:25;3.30;;;3.00;;
12818;SDS011;6474;53.474;9.894;2023-05-07T07:05:53;3.77;;;3.37;;
12818;SDS011;6474;53.474;9.894;2023-05-07T07:08:21;2.40;;;2.20;;
12818;SDS011;6474;53.474;9.894;2023-05-07T07:10:51;4.40;;;2.70;;
12818;SDS011;6474;53.474;9.894;2023-05-07T07:13:18;4.60;;;2.77;;
12818;SDS011;6474;53.474;9.894;2023-05-07T07:15:47;3.30;;;2.97;;
12818;SDS011;6474;53.474;9.894;2023-05-07T07:18:14;2.60;;;2.40;;
12818;SDS011;6474;53.474;9.894;2023-05-07T07:20:42;2.77;;;2.60;;
12818;SDS011;6474;53.474;9.894;2023-05-07T07:23:11;2.80;;;2.50;;
12818;SDS011;6474;53.474;9.894;2023-05-07T07:25:39;2.53;;;2.43;;
12818;SDS011;6474;53.474;9.894;2023-05-07T07:28:08;2.40;;;2.30;;
12818;SDS011;6474;53.474;9.894;2023-05-07T07:30:36;2.43;;;2.30;;
12818;SDS011;6474;53.474;9.894;2023-05-07T07:33:04;2.90;;;2.70;;
12818;SDS011;6474;53.474;9.894;2023-05-07T07:35:32;2.20;;;2.10;;
12818;SDS011;6474;53.474;9.894;2023-05-07T07:38:00;2.73;;;2.63;;
12818;SDS011;6474;53.474;9.894;2023-05-07T07:40:28;2.20;;;2.10;;
12818;SDS011;6474;53.474;9.894;2023-05-07T07:42:56;2.73;;;2.53;;
12818;SDS011;6474;53.474;9.894;2023-05-07T07:45:26;2.80;;;2.70;;
12818;SDS011;6474;53.474;9.894;2023-05-07T07:47:54;4.43;;;2.30;;
12818;SDS011;6474;53.474;9.894;2023-05-07T07:50:22;2.93;;;2.77;;
12818;SDS011;6474;53.474;9.894;2023-05-07T07:53:09;1.80;;;1.70;;
12818;SDS011;6474;53.474;9.894;2023-05-07T07:55:37;2.73;;;2.53;;
12818;SDS011;6474;53.474;9.894;2023-05-07T07:58:06;3.47;;;3.20;;
12818;SDS011;6474;53.474;9.894;2023-05-07T08:00:35;2.17;;;2.17;;
12818;SDS011;6474;53.474;9.894;2023-05-07T08:03:03;2.77;;;2.57;;
12818;SDS011;6474;53.474;9.894;2023-05-07T08:05:33;2.07;;;1.97;;
12818;SDS011;6474;53.474;9.894;2023-05-07T08:08:01;2.07;;;1.97;;
12818;SDS011;6474;53.474;9.894;2023-05-07T08:10:29;2.13;;;2.10;;
12818;SDS011;6474;53.474;9.894;2023-05-07T08:13:01;2.50;;;2.23;;
12818;SDS011;6474;53.474;9.894;2023-05-07T08:15:30;3.97;;;2.20;;
12818;SDS011;6474;53.474;9.894;2023-05-07T08:17:59;2.73;;;2.53;;
12818;SDS011;6474;53.474;9.894;2023-05-07T08:20:28;2.17;;;2.07;;
12818;SDS011;6474;53.474;9.894;2023-05-07T08:22:56;2.50;;;2.40;;
12818;SDS011;6474;53.474;9.894;2023-05-07T08:25:24;2.47;;;2.33;;
12818;SDS011;6474;53.474;9.894;2023-05-07T08:27:52;2.30;;;2.20;;
12818;SDS011;6474;53.474;9.894;2023-05-07T08:30:21;2.20;;;2.10;;
12818;SDS011;6474;53.474;9.894;2023-05-07T08:32:48;2.60;;;2.50;;
12818;SDS011;6474;53.474;9.894;2023-05-07T08:35:18;2.37;;;2.27;;
12818;SDS011;6474;53.474;9.894;2023-05-07T08:37:46;2.20;;;2.10;;
12818;SDS011;6474;53.474;9.894;2023-05-07T08:40:14;2.77;;;2.57;;
12818;SDS011;6474;53.474;9.894;2023-05-07T08:42:42;3.03;;;2.87;;
12818;SDS011;6474;53.474;9.894;2023-05-07T08:45:11;3.50;;;2.33;;
12818;SDS011;6474;53.474;9.894;2023-05-07T08:47:42;1.87;;;1.80;;
12818;SDS011;6474;53.474;9.894;2023-05-07T08:50:12;2.30;;;2.20;;
12818;SDS011;6474;53.474;9.894;2023-05-07T08:52:42;2.80;;;2.47;;
12818;SDS011;6474;53.474;9.894;2023-05-07T08:55:09;3.05;;;2.95;;
12818;SDS011;6474;53.474;9.894;2023-05-07T08:57:38;2.63;;;2.43;;
12818;SDS011;6474;53.474;9.894;2023-05-07T09:00:06;2.60;;;2.40;;
12818;SDS011;6474;53.474;9.894;2023-05-07T09:02:37;2.47;;;2.37;;
12818;SDS011;6474;53.474;9.894;2023-05-07T09:05:06;2.27;;;2.17;;
12818;SDS011;6474;53.474;9.894;2023-05-07T09:07:35;1.87;;;1.87;;
12818;SDS011;6474;53.474;9.894;2023-05-07T09:10:05;2.13;;;2.13;;
12818;SDS011;6474;53.474;9.894;2023-05-07T09:12:34;3.57;;;3.27;;
12818;SDS011;6474;53.474;9.894;2023-05-07T09:15:02;2.20;;;2.10;;
12818;SDS011;6474;53.474;9.894;2023-05-07T09:17:31;2.83;;;2.63;;
12818;SDS011;6474;53.474;9.894;2023-05-07T09:20:01;2.17;;;2.07;;
12818;SDS011;6474;53.474;9.894;2023-05-07T09:22:31;2.27;;;2.17;;
12818;SDS011;6474;53.474;9.894;2023-05-07T09:24:59;2.27;;;2.17;;
12818;SDS011;6474;53.474;9.894;2023-05-07T09:27:30;2.67;;;2.47;;
12818;SDS011;6474;53.474;9.894;2023-05-07T09:29:58;2.57;;;2.47;;
12818;SDS011;6474;53.474;9.894;2023-05-07T09:32:26;2.30;;;2.20;;
12818;SDS011;6474;53.474;9.894;2023-05-07T09:34:54;2.80;;;2.60;;
12818;SDS011;6474;53.474;9.894;2023-05-07T09:37:23;2.67;;;2.47;;
12818;SDS011;6474;53.474;9.894;2023-05-07T09:39:54;2.40;;;2.30;;
12818;SDS011;6474;53.474;9.894;2023-05-07T09:42:24;2.73;;;2.63;;
12818;SDS011;6474;53.474;9.894;2023-05-07T09:44:54;3.00;;;2.80;;
12818;SDS011;6474;53.474;9.894;2023-05-07T09:47:23;3.27;;;3.07;;
12818;SDS011;6474;53.474;9.894;2023-05-07T09:49:53;2.57;;;2.30;;
12818;SDS011;6474;53.474;9.894;2023-05-07T09:52:24;2.00;;;2.00;;
12818;SDS011;6474;53.474;9.894;2023-05-07T09:54:54;2.40;;;2.20;;
12818;SDS011;6474;53.474;9.894;2023-05-07T09:57:25;4.40;;;2.47;;
12818;SDS011;6474;53.474;9.894;2023-05-07T09:59:55;2.70;;;2.50;;
12818;SDS011;6474;53.474;9.894;2023-05-07T10:02:25;4.87;;;2.83;;
12818;SDS011;6474;53.474;9.894;2023-05-07T10:04:57;3.00;;;2.90;;
12818;SDS011;6474;53.474;9.894;2023-05-07T10:07:26;2.70;;;2.60;;
12818;SDS011;6474;53.474;9.894;2023-05-07T10:09:56;2.33;;;2.23;;
12818;SDS011;6474;53.474;9.894;2023-05-07T10:12:26;2.60;;;2.50;;
12818;SDS011;6474;53.474;9.894;2023-05-07T10:14:56;2.63;;;2.53;;
12818;SDS011;6474;53.474;9.894;2023-05-07T10:17:23;2.53;;;2.43;;
12818;SDS011;6474;53.474;9.894;2023-05-07T10:19:52;3.17;;;2.83;;
12818;SDS011;6474;53.474;9.894;2023-05-07T10:22:21;2.23;;;2.10;;
12818;SDS011;6474;53.474;9.894;2023-05-07T10:24:49;2.27;;;2.17;;
12818;SDS011;6474;53.474;9.894;2023-05-07T10:27:19;2.23;;;2.13;;
12818;SDS011;6474;53.474;9.894;2023-05-07T10:29:51;3.13;;;2.93;;
12818;SDS011;6474;53.474;9.894;2023-05-07T10:32:33;3.30;;;3.00;;
12818;SDS011;6474;53.474;9.894;2023-05-07T10:35:06;2.73;;;2.63;;
12818;SDS011;6474;53.474;9.894;2023-05-07T10:37:38;2.70;;;2.50;;
12818;SDS011;6474;53.474;9.894;2023-05-07T10:40:07;3.00;;;2.80;;
12818;SDS011;6474;53.474;9.894;2023-05-07T10:42:37;3.10;;;3.00;;
12818;SDS011;6474;53.474;9.894;2023-05-07T10:45:15;3.67;;;3.37;;
12818;SDS011;6474;53.474;9.894;2023-05-07T10:53:47;2.70;;;2.60;;
12818;SDS011;6474;53.474;9.894;2023-05-07T10:56:25;2.60;;;2.50;;
12818;SDS011;6474;53.474;9.894;2023-05-07T10:58:54;2.70;;;2.53;;
12818;SDS011;6474;53.474;9.894;2023-05-07T11:04:21;2.90;;;2.77;;
12818;SDS011;6474;53.474;9.894;2023-05-07T11:12:46;2.90;;;2.80;;
12818;SDS011;6474;53.474;9.894;2023-05-07T11:15:34;2.90;;;2.77;;
12818;SDS011;6474;53.474;9.894;2023-05-07T11:18:21;2.70;;;2.57;;
12818;SDS011;6474;53.474;9.894;2023-05-07T11:20:56;2.20;;;2.10;;
12818;SDS011;6474;53.474;9.894;2023-05-07T11:26:46;2.47;;;2.37;;
12818;SDS011;6474;53.474;9.894;2023-05-07T11:29:16;2.60;;;2.40;;
12818;SDS011;6474;53.474;9.894;2023-05-07T11:31:48;3.53;;;3.15;;
12818;SDS011;6474;53.474;9.894;2023-05-07T11:34:21;2.67;;;2.57;;
12818;SDS011;6474;53.474;9.894;2023-05-07T11:36:50;2.70;;;2.50;;
12818;SDS011;6474;53.474;9.894;2023-05-07T11:42:04;2.43;;;2.33;;
12818;SDS011;6474;53.474;9.894;2023-05-07T11:44:41;1.83;;;1.73;;
12818;SDS011;6474;53.474;9.894;2023-05-07T11:47:10;2.60;;;2.50;;
12818;SDS011;6474;53.474;9.894;2023-05-07T11:49:39;2.80;;;2.70;;
12818;SDS011;6474;53.474;9.894;2023-05-07T11:52:07;2.77;;;2.67;;
12818;SDS011;6474;53.474;9.894;2023-05-07T11:54:36;3.90;;;2.50;;
12818;SDS011;6474;53.474;9.894;2023-05-07T11:57:04;2.53;;;2.42;;
12818;SDS011;6474;53.474;9.894;2023-05-07T11:59:38;2.67;;;2.57;;
12818;SDS011;6474;53.474;9.894;2023-05-07T12:02:06;3.20;;;2.47;;
12818;SDS011;6474;53.474;9.894;2023-05-07T12:04:34;2.80;;;2.70;;
12818;SDS011;6474;53.474;9.894;2023-05-07T12:07:03;2.57;;;2.43;;
12818;SDS011;6474;53.474;9.894;2023-05-07T12:09:32;2.33;;;2.22;;
12818;SDS011;6474;53.474;9.894;2023-05-07T12:12:02;2.70;;;2.60;;
12818;SDS011;6474;53.474;9.894;2023-05-07T12:14:31;2.63;;;2.40;;
12818;SDS011;6474;53.474;9.894;2023-05-07T12:17:00;2.27;;;2.23;;
12818;SDS011;6474;53.474;9.894;2023-05-07T12:19:29;2.07;;;1.97;;
12818;SDS011;6474;53.474;9.894;2023-05-07T12:21:57;2.55;;;2.45;;
12818;SDS011;6474;53.474;9.894;2023-05-07T12:24:27;2.20;;;2.10;;
12818;SDS011;6474;53.474;9.894;2023-05-07T12:26:55;2.35;;;2.25;;
12818;SDS011;6474;53.474;9.894;2023-05-07T12:29:23;2.07;;;1.97;;
12818;SDS011;6474;53.474;9.894;2023-05-07T12:31:52;1.93;;;1.93;;
12818;SDS011;6474;53.474;9.894;2023-05-07T12:34:20;3.03;;;2.38;;
12818;SDS011;6474;53.474;9.894;2023-05-07T12:36:49;2.55;;;2.45;;
12818;SDS011;6474;53.474;9.894;2023-05-07T12:39:17;2.03;;;2.00;;
12818;SDS011;6474;53.474;9.894;2023-05-07T12:41:55;2.47;;;2.35;;
12818;SDS011;6474;53.474;9.894;2023-05-07T12:44:25;2.17;;;2.08;;
12818;SDS011;6474;53.474;9.894;2023-05-07T12:46:56;2.03;;;2.03;;
12818;SDS011;6474;53.474;9.894;2023-05-07T12:49:28;2.47;;;2.38;;
12818;SDS011;6474;53.474;9.894;2023-05-07T12:51:56;2.00;;;1.90;;
12818;SDS011;6474;53.474;9.894;2023-05-07T12:54:27;2.20;;;2.10;;
12818;SDS011;6474;53.474;9.894;2023-05-07T12:57:04;1.85;;;1.85;;
12818;SDS011;6474;53.474;9.894;2023-05-07T12:59:34;1.77;;;1.77;;
12818;SDS011;6474;53.474;9.894;2023-05-07T13:02:03;2.08;;;2.08;;
12818;SDS011;6474;53.474;9.894;2023-05-07T13:04:31;2.17;;;2.10;;
12818;SDS011;6474;53.474;9.894;2023-05-07T13:07:00;2.10;;;2.10;;
12818;SDS011;6474;53.474;9.894;2023-05-07T13:09:28;1.73;;;1.67;;
12818;SDS011;6474;53.474;9.894;2023-05-07T13:11:56;1.83;;;1.83;;
12818;SDS011;6474;53.474;9.894;2023-05-07T13:14:27;2.20;;;2.20;;
12818;SDS011;6474;53.474;9.894;2023-05-07T13:16:55;1.60;;;1.60;;
12818;SDS011;6474;53.474;9.894;2023-05-07T13:19:23;2.55;;;2.10;;
12818;SDS011;6474;53.474;9.894;2023-05-07T13:21:50;2.97;;;1.90;;
12818;SDS011;6474;53.474;9.894;2023-05-07T13:24:18;4.82;;;3.53;;
12818;SDS011;6474;53.474;9.894;2023-05-07T13:26:46;2.05;;;1.95;;
12818;SDS011;6474;53.474;9.894;2023-05-07T13:29:14;3.50;;;3.20;;
12818;SDS011;6474;53.474;9.894;2023-05-07T13:31:43;2.53;;;2.42;;
12818;SDS011;6474;53.474;9.894;2023-05-07T13:34:13;6.65;;;4.40;;
12818;SDS011;6474;53.474;9.894;2023-05-07T13:36:41;4.68;;;3.58;;
12818;SDS011;6474;53.474;9.894;2023-05-07T13:39:09;2.70;;;2.60;;
12818;SDS011;6474;53.474;9.894;2023-05-07T13:41:37;1.65;;;1.65;;
12818;SDS011;6474;53.474;9.894;2023-05-07T13:44:05;3.42;;;3.08;;
12818;SDS011;6474;53.474;9.894;2023-05-07T13:46:32;1.90;;;1.90;;
12818;SDS011;6474;53.474;9.894;2023-05-07T13:49:02;1.95;;;1.95;;
12818;SDS011;6474;53.474;9.894;2023-05-07T13:51:30;1.77;;;1.73;;
12818;SDS011;6474;53.474;9.894;2023-05-07T13:53:57;1.83;;;1.73;;
12818;SDS011;6474;53.474;9.894;2023-05-07T13:56:25;2.00;;;2.00;;
12818;SDS011;6474;53.474;9.894;2023-05-07T13:58:54;1.55;;;1.52;;
12818;SDS011;6474;53.474;9.894;2023-05-07T14:01:26;1.63;;;1.63;;
12818;SDS011;6474;53.474;9.894;2023-05-07T14:03:55;1.58;;;1.58;;
12818;SDS011;6474;53.474;9.894;2023-05-07T14:06:24;1.50;;;1.50;;
12818;SDS011;6474;53.474;9.894;2023-05-07T14:08:52;3.10;;;1.73;;
12818;SDS011;6474;53.474;9.894;2023-05-07T14:11:20;1.40;;;1.40;;
12818;SDS011;6474;53.474;9.894;2023-05-07T14:13:48;1.63;;;1.63;;
12818;SDS011;6474;53.474;9.894;2023-05-07T14:16:16;5.25;;;1.42;;
12818;SDS011;6474;53.474;9.894;2023-05-07T14:18:44;1.38;;;1.38;;
12818;SDS011;6474;53.474;9.894;2023-05-07T14:21:11;1.45;;;1.45;;
12818;SDS011;6474;53.474;9.894;2023-05-07T14:23:41;1.40;;;1.30;;
12818;SDS011;6474;53.474;9.894;2023-05-07T14:26:09;1.40;;;1.40;;
12818;SDS011;6474;53.474;9.894;2023-05-07T14:28:37;1.27;;;1.27;;
12818;SDS011;6474;53.474;9.894;2023-05-07T14:31:05;1.45;;;1.45;;
12818;SDS011;6474;53.474;9.894;2023-05-07T14:33:33;1.40;;;1.40;;
12818;SDS011;6474;53.474;9.894;2023-05-07T14:36:01;1.40;;;1.40;;
12818;SDS011;6474;53.474;9.894;2023-05-07T14:38:29;1.40;;;1.40;;
12818;SDS011;6474;53.474;9.894;2023-05-07T14:41:00;1.60;;;1.60;;
12818;SDS011;6474;53.474;9.894;2023-05-07T14:43:28;1.40;;;1.40;;
12818;SDS011;6474;53.474;9.894;2023-05-07T14:45:56;1.55;;;1.45;;
12818;SDS011;6474;53.474;9.894;2023-05-07T14:48:23;1.30;;;1.30;;
12818;SDS011;6474;53.474;9.894;2023-05-07T14:50:51;1.10;;;1.10;;
12818;SDS011;6474;53.474;9.894;2023-05-07T14:53:19;1.30;;;1.30;;
12818;SDS011;6474;53.474;9.894;2023-05-07T14:55:48;1.45;;;1.42;;
12818;SDS011;6474;53.474;9.894;2023-05-07T14:58:17;1.35;;;1.35;;
12818;SDS011;6474;53.474;9.894;2023-05-07T15:00:45;1.63;;;1.63;;
12818;SDS011;6474;53.474;9.894;2023-05-07T15:03:13;1.02;;;1.00;;
12818;SDS011;6474;53.474;9.894;2023-05-07T15:05:41;1.52;;;1.52;;
12818;SDS011;6474;53.474;9.894;2023-05-07T15:08:09;1.40;;;1.40;;
12818;SDS011;6474;53.474;9.894;2023-05-07T15:10:37;1.15;;;1.15;;
12818;SDS011;6474;53.474;9.894;2023-05-07T15:13:07;1.38;;;1.38;;
12818;SDS011;6474;53.474;9.894;2023-05-07T15:15:42;1.20;;;1.20;;
12818;SDS011;6474;53.474;9.894;2023-05-07T15:18:10;1.40;;;1.40;;
12818;SDS011;6474;53.474;9.894;2023-05-07T15:20:38;1.17;;;1.17;;
12818;SDS011;6474;53.474;9.894;2023-05-07T15:23:07;1.60;;;1.50;;
12818;SDS011;6474;53.474;9.894;2023-05-07T15:25:38;1.25;;;1.25;;
12818;SDS011;6474;53.474;9.894;2023-05-07T15:28:06;1.38;;;1.38;;
12818;SDS011;6474;53.474;9.894;2023-05-07T15:30:34;1.27;;;1.27;;
12818;SDS011;6474;53.474;9.894;2023-05-07T15:33:03;1.17;;;1.17;;